DLH1AN EDDS-EKCH
Flight info
| Callsign | DLH1AN |
|---|---|
| Flight time | 1h 20m |
| Altitude | 35000 |
| Route | OKIBA4B/25 OKIBA N851 RIMKI Z99 LOHRE DCT MASEK DCT BERXO DCT MAKEL N851 GESKA Z711 MONAK |
| Aircraft | A321/M-SDE3FGHIRWY/LB1 |
Departure
| Time | 2026-05-04 18:23 |
|---|---|
| Airport | Stuttgart Airport (EDDS) |
Arrival
| Time | 2026-05-04 19:43 |
|---|---|
| Airport | Copenhagen Kastrup Airport (EKCH) |
| Time | Latitude | Longitude | Altitude | Speed | Heading |
|---|---|---|---|---|---|
| 2026-05-04 17:53 | 48.68881 | 9.19362 | 1316 ft | 0 kts | 343° |
| 2026-05-04 18:06 | 48.68875 | 9.19364 | 1315 ft | 4 kts | 343° |
| 2026-05-04 18:06 | 48.68853 | 9.19373 | 1315 ft | 2 kts | 351° |
| 2026-05-04 18:06 | 48.68828 | 9.19373 | 1314 ft | 4 kts | 21° |
| 2026-05-04 18:07 | 48.68807 | 9.19351 | 1314 ft | 4 kts | 55° |
| 2026-05-04 18:07 | 48.68794 | 9.19315 | 1314 ft | 4 kts | 71° |
| 2026-05-04 18:07 | 48.68791 | 9.19301 | 1314 ft | 0 kts | 73° |
| 2026-05-04 18:11 | 48.68792 | 9.19304 | 1314 ft | 1 kts | 73° |
| 2026-05-04 18:11 | 48.68797 | 9.19329 | 1314 ft | 4 kts | 74° |
| 2026-05-04 18:11 | 48.68808 | 9.19390 | 1313 ft | 8 kts | 74° |
| 2026-05-04 18:11 | 48.68827 | 9.19490 | 1312 ft | 12 kts | 74° |
| 2026-05-04 18:12 | 48.68852 | 9.19625 | 1309 ft | 15 kts | 74° |
| 2026-05-04 18:12 | 48.68884 | 9.19789 | 1305 ft | 18 kts | 71° |
| 2026-05-04 18:12 | 48.68945 | 9.19944 | 1303 ft | 17 kts | 58° |
| 2026-05-04 18:12 | 48.69002 | 9.20112 | 1301 ft | 19 kts | 74° |
| 2026-05-04 18:13 | 48.69041 | 9.20320 | 1294 ft | 22 kts | 74° |
| 2026-05-04 18:13 | 48.69045 | 9.20488 | 1286 ft | 7 kts | 145° |
| 2026-05-04 18:13 | 48.68962 | 9.20692 | 1278 ft | 16 kts | 76° |
| 2026-05-04 18:14 | 48.68995 | 9.20859 | 1276 ft | 17 kts | 74° |
| 2026-05-04 18:14 | 48.69030 | 9.21050 | 1270 ft | 20 kts | 74° |
| 2026-05-04 18:14 | 48.69073 | 9.21273 | 1268 ft | 23 kts | 73° |
| 2026-05-04 18:15 | 48.69171 | 9.21789 | 1256 ft | 24 kts | 74° |
| 2026-05-04 18:15 | 48.69273 | 9.22324 | 1240 ft | 25 kts | 73° |
| 2026-05-04 18:15 | 48.69321 | 9.22577 | 1237 ft | 26 kts | 74° |
| 2026-05-04 18:16 | 48.69373 | 9.22853 | 1229 ft | 26 kts | 74° |
| 2026-05-04 18:16 | 48.69412 | 9.23060 | 1224 ft | 17 kts | 74° |
| 2026-05-04 18:16 | 48.69448 | 9.23247 | 1220 ft | 20 kts | 74° |
| 2026-05-04 18:17 | 48.69525 | 9.23657 | 1212 ft | 22 kts | 73° |
| 2026-05-04 18:17 | 48.69570 | 9.23890 | 1207 ft | 24 kts | 74° |
| 2026-05-04 18:17 | 48.69588 | 9.24214 | 1197 ft | 17 kts | 119° |
| 2026-05-04 18:18 | 48.69535 | 9.24303 | 1192 ft | 11 kts | 165° |
| 2026-05-04 18:18 | 48.69497 | 9.24318 | 1190 ft | 0 kts | 165° |
| 2026-05-04 18:18 | 48.69496 | 9.24318 | 1190 ft | 0 kts | 165° |
| 2026-05-04 18:20 | 48.69489 | 9.24321 | 1190 ft | 3 kts | 164° |
| 2026-05-04 18:20 | 48.69457 | 9.24335 | 1190 ft | 6 kts | 164° |
| 2026-05-04 18:20 | 48.69413 | 9.24351 | 1190 ft | 6 kts | 179° |
| 2026-05-04 18:20 | 48.69388 | 9.24308 | 1191 ft | 5 kts | 247° |
| 2026-05-04 18:21 | 48.69384 | 9.24284 | 1192 ft | 0 kts | 255° |
| 2026-05-04 18:22 | 48.69383 | 9.24282 | 1192 ft | 1 kts | 255° |
| 2026-05-04 18:22 | 48.69346 | 9.24083 | 1196 ft | 52 kts | 254° |
| 2026-05-04 18:23 | 48.69183 | 9.23227 | 1213 ft | 115 kts | 254° |
| 2026-05-04 18:23 | 48.68915 | 9.21818 | 1275 ft | 162 kts | 253° |
| 2026-05-04 18:23 | 48.68610 | 9.20156 | 1947 ft | 162 kts | 258° |
| 2026-05-04 18:23 | 48.68301 | 9.18514 | 2560 ft | 168 kts | 257° |
| 2026-05-04 18:24 | 48.67958 | 9.16705 | 2787 ft | 190 kts | 256° |
| 2026-05-04 18:24 | 48.67565 | 9.14683 | 2931 ft | 212 kts | 255° |
| 2026-05-04 18:24 | 48.67123 | 9.12434 | 3110 ft | 233 kts | 257° |
| 2026-05-04 18:24 | 48.67148 | 9.09983 | 3570 ft | 239 kts | 292° |
| 2026-05-04 18:25 | 48.67980 | 9.07802 | 4215 ft | 242 kts | 308° |
| 2026-05-04 18:25 | 48.69305 | 9.06248 | 4808 ft | 248 kts | 339° |
| 2026-05-04 18:25 | 48.71038 | 9.05519 | 5112 ft | 267 kts | 346° |
| 2026-05-04 18:25 | 48.72240 | 9.05016 | 5477 ft | 273 kts | 344° |
| 2026-05-04 18:26 | 48.74697 | 9.03922 | 6265 ft | 282 kts | 349° |
| 2026-05-04 18:26 | 48.76647 | 9.04102 | 6846 ft | 287 kts | 21° |
| 2026-05-04 18:26 | 48.77808 | 9.05127 | 7247 ft | 288 kts | 44° |
| 2026-05-04 18:26 | 48.79462 | 9.08278 | 8087 ft | 291 kts | 57° |
| 2026-05-04 18:27 | 48.80236 | 9.09947 | 8500 ft | 293 kts | 57° |
| 2026-05-04 18:27 | 48.81404 | 9.12512 | 9148 ft | 297 kts | 58° |
| 2026-05-04 18:27 | 48.82577 | 9.15104 | 9799 ft | 300 kts | 57° |
| 2026-05-04 18:27 | 48.84019 | 9.17442 | 10251 ft | 313 kts | 37° |
| 2026-05-04 18:28 | 48.86057 | 9.18831 | 10373 ft | 334 kts | 12° |
| 2026-05-04 18:28 | 48.88420 | 9.19423 | 10500 ft | 353 kts | 8° |
| 2026-05-04 18:28 | 48.90917 | 9.20000 | 10624 ft | 372 kts | 8° |
| 2026-05-04 18:28 | 48.93518 | 9.20599 | 10917 ft | 382 kts | 8° |
| 2026-05-04 18:29 | 48.96125 | 9.21214 | 11454 ft | 386 kts | 8° |
| 2026-05-04 18:29 | 48.98788 | 9.21855 | 11994 ft | 389 kts | 8° |
| 2026-05-04 18:29 | 49.01466 | 9.22503 | 12555 ft | 391 kts | 8° |
| 2026-05-04 18:29 | 49.04164 | 9.23159 | 13089 ft | 394 kts | 8° |
| 2026-05-04 18:30 | 49.09620 | 9.24491 | 14109 ft | 400 kts | 8° |
| 2026-05-04 18:30 | 49.12383 | 9.25166 | 14582 ft | 403 kts | 8° |
| 2026-05-04 18:30 | 49.15165 | 9.25846 | 15055 ft | 406 kts | 8° |
| 2026-05-04 18:31 | 49.17925 | 9.26522 | 15532 ft | 409 kts | 8° |
| 2026-05-04 18:31 | 49.20746 | 9.27215 | 15996 ft | 411 kts | 8° |
| 2026-05-04 18:31 | 49.23581 | 9.27910 | 16451 ft | 414 kts | 8° |
| 2026-05-04 18:31 | 49.26434 | 9.28611 | 16887 ft | 417 kts | 8° |
| 2026-05-04 18:32 | 49.29306 | 9.29317 | 17323 ft | 420 kts | 8° |
| 2026-05-04 18:32 | 49.32202 | 9.30029 | 17756 ft | 423 kts | 8° |
| 2026-05-04 18:32 | 49.35114 | 9.30747 | 18179 ft | 425 kts | 8° |
| 2026-05-04 18:32 | 49.38047 | 9.31468 | 18554 ft | 428 kts | 8° |
| 2026-05-04 18:33 | 49.40997 | 9.32192 | 18929 ft | 430 kts | 8° |
| 2026-05-04 18:33 | 49.43961 | 9.32921 | 19283 ft | 433 kts | 8° |
| 2026-05-04 18:33 | 49.46945 | 9.33660 | 19641 ft | 436 kts | 8° |
| 2026-05-04 18:33 | 49.49945 | 9.34405 | 19999 ft | 438 kts | 8° |
| 2026-05-04 18:34 | 49.52926 | 9.35145 | 20357 ft | 441 kts | 8° |
| 2026-05-04 18:34 | 49.55967 | 9.35898 | 20717 ft | 444 kts | 8° |
| 2026-05-04 18:34 | 49.59025 | 9.36656 | 21071 ft | 446 kts | 8° |
| 2026-05-04 18:34 | 49.62100 | 9.37418 | 21448 ft | 448 kts | 8° |
| 2026-05-04 18:35 | 49.65179 | 9.38187 | 21815 ft | 450 kts | 8° |
| 2026-05-04 18:35 | 49.68285 | 9.38963 | 22167 ft | 453 kts | 8° |
| 2026-05-04 18:35 | 49.71398 | 9.39745 | 22509 ft | 455 kts | 8° |
| 2026-05-04 18:35 | 49.74532 | 9.40533 | 22836 ft | 458 kts | 8° |
| 2026-05-04 18:36 | 49.77643 | 9.41314 | 23166 ft | 460 kts | 8° |
| 2026-05-04 18:36 | 49.80818 | 9.42110 | 23490 ft | 463 kts | 8° |
| 2026-05-04 18:36 | 49.84004 | 9.42906 | 23826 ft | 464 kts | 8° |
| 2026-05-04 18:36 | 49.87193 | 9.43699 | 24137 ft | 465 kts | 7° |
| 2026-05-04 18:37 | 49.90397 | 9.44498 | 24421 ft | 467 kts | 7° |
| 2026-05-04 18:37 | 49.93611 | 9.45309 | 24700 ft | 469 kts | 7° |
| 2026-05-04 18:37 | 49.96840 | 9.46127 | 24978 ft | 471 kts | 7° |
| 2026-05-04 18:37 | 50.00083 | 9.46951 | 25259 ft | 473 kts | 7° |
| 2026-05-04 18:38 | 50.03339 | 9.47780 | 25536 ft | 475 kts | 7° |
| 2026-05-04 18:38 | 50.06565 | 9.48603 | 25808 ft | 477 kts | 7° |
| 2026-05-04 18:38 | 50.09856 | 9.49344 | 26077 ft | 479 kts | 5° |
| 2026-05-04 18:38 | 50.13170 | 9.49942 | 26330 ft | 480 kts | 4° |
| 2026-05-04 18:39 | 50.16501 | 9.50449 | 26581 ft | 482 kts | 3° |
| 2026-05-04 18:39 | 50.19847 | 9.50922 | 26816 ft | 484 kts | 3° |
| 2026-05-04 18:39 | 50.23207 | 9.51406 | 27047 ft | 486 kts | 3° |
| 2026-05-04 18:39 | 50.26581 | 9.51924 | 27266 ft | 488 kts | 3° |
| 2026-05-04 18:40 | 50.29917 | 9.52473 | 27458 ft | 490 kts | 4° |
| 2026-05-04 18:40 | 50.33315 | 9.53058 | 27660 ft | 492 kts | 4° |
| 2026-05-04 18:40 | 50.36717 | 9.53648 | 27905 ft | 492 kts | 4° |
| 2026-05-04 18:40 | 50.40122 | 9.54238 | 28196 ft | 492 kts | 4° |
| 2026-05-04 18:41 | 50.43522 | 9.54823 | 28475 ft | 491 kts | 3° |
| 2026-05-04 18:41 | 50.46921 | 9.55402 | 28750 ft | 491 kts | 3° |
| 2026-05-04 18:41 | 50.50316 | 9.55978 | 29062 ft | 490 kts | 3° |
| 2026-05-04 18:41 | 50.53658 | 9.56545 | 29388 ft | 489 kts | 3° |
| 2026-05-04 18:42 | 50.57033 | 9.57118 | 29683 ft | 488 kts | 3° |
| 2026-05-04 18:42 | 50.60404 | 9.57694 | 29966 ft | 488 kts | 3° |
| 2026-05-04 18:42 | 50.63780 | 9.58271 | 30216 ft | 487 kts | 3° |
| 2026-05-04 18:42 | 50.67152 | 9.58846 | 30469 ft | 487 kts | 3° |
| 2026-05-04 18:43 | 50.70517 | 9.59429 | 30713 ft | 486 kts | 4° |
| 2026-05-04 18:43 | 50.73846 | 9.60463 | 30957 ft | 489 kts | 13° |
| 2026-05-04 18:43 | 50.77081 | 9.62167 | 31195 ft | 490 kts | 17° |
| 2026-05-04 18:43 | 50.80281 | 9.63991 | 31444 ft | 489 kts | 17° |
| 2026-05-04 18:44 | 50.83443 | 9.65797 | 31695 ft | 488 kts | 17° |
| 2026-05-04 18:44 | 50.85599 | 9.67031 | 31864 ft | 488 kts | 17° |
| 2026-05-04 18:44 | 50.89829 | 9.69444 | 32197 ft | 487 kts | 17° |
| 2026-05-04 18:44 | 50.93015 | 9.71257 | 32446 ft | 486 kts | 17° |
| 2026-05-04 18:45 | 50.96197 | 9.73068 | 32701 ft | 485 kts | 17° |
| 2026-05-04 18:45 | 50.99378 | 9.74883 | 32938 ft | 485 kts | 17° |
| 2026-05-04 18:45 | 51.02549 | 9.76698 | 33185 ft | 484 kts | 17° |
| 2026-05-04 18:45 | 51.05670 | 9.78488 | 33431 ft | 483 kts | 17° |
| 2026-05-04 18:46 | 51.08831 | 9.80307 | 33678 ft | 482 kts | 17° |
| 2026-05-04 18:46 | 51.11981 | 9.82123 | 33907 ft | 482 kts | 17° |
| 2026-05-04 18:46 | 51.15139 | 9.83945 | 33979 ft | 482 kts | 17° |
| 2026-05-04 18:47 | 51.21446 | 9.87598 | 33980 ft | 482 kts | 17° |
| 2026-05-04 18:47 | 51.27774 | 9.91190 | 33981 ft | 482 kts | 15° |
| 2026-05-04 18:48 | 51.34082 | 9.94631 | 33984 ft | 482 kts | 15° |
| 2026-05-04 18:48 | 51.40425 | 9.98095 | 33990 ft | 482 kts | 15° |
| 2026-05-04 18:49 | 51.46777 | 10.01608 | 33984 ft | 483 kts | 15° |
| 2026-05-04 18:49 | 51.53123 | 10.05152 | 33992 ft | 483 kts | 16° |
| 2026-05-04 18:50 | 51.59425 | 10.08682 | 33994 ft | 483 kts | 15° |
| 2026-05-04 18:50 | 51.65785 | 10.12248 | 34004 ft | 484 kts | 15° |
| 2026-05-04 18:51 | 51.72144 | 10.15817 | 34211 ft | 484 kts | 15° |
| 2026-05-04 18:51 | 51.75324 | 10.17604 | 34415 ft | 483 kts | 15° |
| 2026-05-04 18:51 | 51.78495 | 10.19390 | 34609 ft | 482 kts | 15° |
| 2026-05-04 18:51 | 51.81660 | 10.21180 | 34799 ft | 482 kts | 15° |
| 2026-05-04 18:52 | 51.84782 | 10.22952 | 34966 ft | 482 kts | 15° |
| 2026-05-04 18:52 | 51.91122 | 10.26551 | 34984 ft | 483 kts | 15° |
| 2026-05-04 18:53 | 51.97454 | 10.30151 | 34976 ft | 482 kts | 15° |
| 2026-05-04 18:53 | 52.03786 | 10.33763 | 34955 ft | 482 kts | 15° |
| 2026-05-04 18:54 | 52.10060 | 10.37357 | 34963 ft | 480 kts | 15° |
| 2026-05-04 18:54 | 52.16364 | 10.40967 | 34977 ft | 481 kts | 15° |
| 2026-05-04 18:55 | 52.22678 | 10.44604 | 34988 ft | 481 kts | 15° |
| 2026-05-04 18:55 | 52.32158 | 10.50087 | 35005 ft | 482 kts | 15° |
| 2026-05-04 18:56 | 52.38470 | 10.53744 | 35002 ft | 481 kts | 15° |
| 2026-05-04 18:56 | 52.44737 | 10.57380 | 34996 ft | 481 kts | 15° |
| 2026-05-04 18:57 | 52.51038 | 10.61061 | 34985 ft | 480 kts | 15° |
| 2026-05-04 18:57 | 52.57335 | 10.64749 | 34994 ft | 481 kts | 15° |
| 2026-05-04 18:58 | 52.63638 | 10.68439 | 34977 ft | 481 kts | 15° |
| 2026-05-04 18:58 | 52.69950 | 10.72153 | 34974 ft | 481 kts | 15° |
| 2026-05-04 18:59 | 52.76214 | 10.75864 | 34968 ft | 482 kts | 15° |
| 2026-05-04 18:59 | 52.82536 | 10.79604 | 34976 ft | 482 kts | 15° |
| 2026-05-04 19:00 | 52.88841 | 10.83360 | 34975 ft | 482 kts | 15° |
| 2026-05-04 19:00 | 52.92025 | 10.84987 | 34974 ft | 475 kts | 4° |
| 2026-05-04 19:00 | 52.95286 | 10.85423 | 34973 ft | 467 kts | 355° |
| 2026-05-04 19:01 | 53.01737 | 10.85492 | 34972 ft | 467 kts | 354° |
| 2026-05-04 19:01 | 53.08239 | 10.85518 | 34978 ft | 467 kts | 354° |
| 2026-05-04 19:02 | 53.14736 | 10.85543 | 34973 ft | 467 kts | 354° |
| 2026-05-04 19:02 | 53.21196 | 10.85567 | 34973 ft | 467 kts | 354° |
| 2026-05-04 19:03 | 53.27693 | 10.85604 | 34996 ft | 467 kts | 354° |
| 2026-05-04 19:03 | 53.34183 | 10.85678 | 34991 ft | 466 kts | 354° |
| 2026-05-04 19:04 | 53.40662 | 10.85748 | 35004 ft | 465 kts | 354° |
| 2026-05-04 19:04 | 53.47128 | 10.85802 | 34996 ft | 465 kts | 354° |
| 2026-05-04 19:05 | 53.53546 | 10.85857 | 35004 ft | 464 kts | 354° |
| 2026-05-04 19:05 | 53.59995 | 10.85918 | 35003 ft | 462 kts | 354° |
| 2026-05-04 19:06 | 53.66422 | 10.85981 | 35005 ft | 461 kts | 354° |
| 2026-05-04 19:06 | 53.72798 | 10.86044 | 35003 ft | 461 kts | 354° |
| 2026-05-04 19:07 | 53.79201 | 10.86115 | 34810 ft | 459 kts | 354° |
| 2026-05-04 19:07 | 53.82390 | 10.86169 | 34470 ft | 457 kts | 354° |
| 2026-05-04 19:07 | 53.85562 | 10.86245 | 34135 ft | 456 kts | 354° |
| 2026-05-04 19:08 | 53.88737 | 10.86343 | 33774 ft | 456 kts | 354° |
| 2026-05-04 19:08 | 53.91916 | 10.86451 | 33387 ft | 457 kts | 354° |
| 2026-05-04 19:08 | 53.95098 | 10.86560 | 33033 ft | 459 kts | 354° |
| 2026-05-04 19:08 | 53.98251 | 10.86666 | 32954 ft | 460 kts | 354° |
| 2026-05-04 19:09 | 54.04669 | 10.86882 | 32974 ft | 462 kts | 354° |
| 2026-05-04 19:09 | 54.11099 | 10.87105 | 32981 ft | 462 kts | 354° |
| 2026-05-04 19:10 | 54.17520 | 10.87330 | 32983 ft | 462 kts | 354° |
| 2026-05-04 19:10 | 54.23865 | 10.87072 | 32825 ft | 455 kts | 347° |
| 2026-05-04 19:11 | 54.27012 | 10.86436 | 32588 ft | 455 kts | 346° |
| 2026-05-04 19:11 | 54.30155 | 10.85779 | 32322 ft | 456 kts | 346° |
| 2026-05-04 19:11 | 54.33307 | 10.85110 | 32060 ft | 457 kts | 346° |
| 2026-05-04 19:11 | 54.36471 | 10.84436 | 31799 ft | 458 kts | 346° |
| 2026-05-04 19:12 | 54.39627 | 10.83762 | 31543 ft | 460 kts | 346° |
| 2026-05-04 19:12 | 54.46013 | 10.82391 | 31046 ft | 463 kts | 345° |
| 2026-05-04 19:13 | 54.52376 | 10.81028 | 30986 ft | 465 kts | 346° |
| 2026-05-04 19:13 | 54.58789 | 10.79682 | 30991 ft | 463 kts | 345° |
| 2026-05-04 19:14 | 54.65190 | 10.78328 | 30984 ft | 464 kts | 345° |
| 2026-05-04 19:14 | 54.71592 | 10.76946 | 30986 ft | 464 kts | 345° |
| 2026-05-04 19:15 | 54.78000 | 10.75565 | 30804 ft | 464 kts | 345° |
| 2026-05-04 19:15 | 54.81201 | 10.74878 | 30594 ft | 463 kts | 346° |
| 2026-05-04 19:15 | 54.84355 | 10.74202 | 30351 ft | 463 kts | 346° |
| 2026-05-04 19:15 | 54.87553 | 10.73510 | 30108 ft | 463 kts | 346° |
| 2026-05-04 19:16 | 54.90747 | 10.72817 | 29830 ft | 464 kts | 346° |
| 2026-05-04 19:16 | 54.93953 | 10.72122 | 29548 ft | 464 kts | 346° |
| 2026-05-04 19:16 | 54.97159 | 10.71426 | 29266 ft | 465 kts | 346° |
| 2026-05-04 19:16 | 55.00371 | 10.70727 | 29001 ft | 465 kts | 346° |
| 2026-05-04 19:17 | 55.03582 | 10.70034 | 28980 ft | 465 kts | 346° |
| 2026-05-04 19:17 | 55.09965 | 10.68654 | 28616 ft | 459 kts | 348° |
| 2026-05-04 19:17 | 55.13086 | 10.67979 | 28335 ft | 445 kts | 348° |
| 2026-05-04 19:18 | 55.16118 | 10.67325 | 28066 ft | 433 kts | 348° |
| 2026-05-04 19:18 | 55.19114 | 10.67093 | 27797 ft | 429 kts | 355° |
| 2026-05-04 19:18 | 55.22078 | 10.66941 | 27523 ft | 424 kts | 353° |
| 2026-05-04 19:18 | 55.25020 | 10.66718 | 27263 ft | 422 kts | 353° |
| 2026-05-04 19:19 | 55.27947 | 10.66489 | 26995 ft | 420 kts | 353° |
| 2026-05-04 19:19 | 55.30864 | 10.66256 | 26537 ft | 417 kts | 353° |
| 2026-05-04 19:19 | 55.33704 | 10.66013 | 26081 ft | 411 kts | 353° |
| 2026-05-04 19:19 | 55.36524 | 10.65933 | 25848 ft | 403 kts | 2° |
| 2026-05-04 19:20 | 55.39247 | 10.67053 | 25458 ft | 404 kts | 19° |
| 2026-05-04 19:20 | 55.41677 | 10.69539 | 24991 ft | 407 kts | 37° |
| 2026-05-04 19:20 | 55.43593 | 10.73203 | 24514 ft | 409 kts | 55° |
| 2026-05-04 19:20 | 55.44818 | 10.77710 | 24020 ft | 410 kts | 73° |
| 2026-05-04 19:21 | 55.45243 | 10.82650 | 23529 ft | 408 kts | 90° |
| 2026-05-04 19:21 | 55.45186 | 10.87632 | 22930 ft | 406 kts | 92° |
| 2026-05-04 19:21 | 55.45115 | 10.92589 | 22395 ft | 404 kts | 92° |
| 2026-05-04 19:21 | 55.45046 | 10.97458 | 21886 ft | 401 kts | 92° |
| 2026-05-04 19:22 | 55.44979 | 11.02348 | 21371 ft | 398 kts | 92° |
| 2026-05-04 19:22 | 55.44909 | 11.07209 | 20861 ft | 395 kts | 92° |
| 2026-05-04 19:22 | 55.44836 | 11.12026 | 20357 ft | 392 kts | 92° |
| 2026-05-04 19:22 | 55.44761 | 11.16817 | 19863 ft | 390 kts | 92° |
| 2026-05-04 19:23 | 55.44685 | 11.21577 | 19372 ft | 387 kts | 92° |
| 2026-05-04 19:23 | 55.44605 | 11.26311 | 18904 ft | 385 kts | 92° |
| 2026-05-04 19:23 | 55.44524 | 11.31007 | 18438 ft | 382 kts | 92° |
| 2026-05-04 19:23 | 55.44447 | 11.35546 | 18301 ft | 369 kts | 92° |
| 2026-05-04 19:24 | 55.44371 | 11.39991 | 18160 ft | 357 kts | 92° |
| 2026-05-04 19:24 | 55.44295 | 11.44277 | 18020 ft | 344 kts | 92° |
| 2026-05-04 19:24 | 55.44218 | 11.48425 | 17854 ft | 334 kts | 92° |
| 2026-05-04 19:24 | 55.44139 | 11.52480 | 17532 ft | 329 kts | 92° |
| 2026-05-04 19:25 | 55.44134 | 11.56494 | 17148 ft | 327 kts | 84° |
| 2026-05-04 19:25 | 55.44561 | 11.60398 | 16767 ft | 323 kts | 70° |
| 2026-05-04 19:25 | 55.45435 | 11.64011 | 16413 ft | 318 kts | 57° |
| 2026-05-04 19:25 | 55.46666 | 11.67140 | 16225 ft | 306 kts | 45° |
| 2026-05-04 19:26 | 55.48162 | 11.69738 | 15901 ft | 300 kts | 37° |
| 2026-05-04 19:26 | 55.49702 | 11.72132 | 15571 ft | 298 kts | 37° |
| 2026-05-04 19:26 | 55.51249 | 11.74555 | 15214 ft | 297 kts | 37° |
| 2026-05-04 19:26 | 55.52789 | 11.76972 | 14877 ft | 296 kts | 37° |
| 2026-05-04 19:27 | 55.54324 | 11.79383 | 14529 ft | 295 kts | 37° |
| 2026-05-04 19:27 | 55.55856 | 11.81789 | 14186 ft | 294 kts | 38° |
| 2026-05-04 19:27 | 55.57383 | 11.84189 | 13868 ft | 293 kts | 38° |
| 2026-05-04 19:27 | 55.58903 | 11.86585 | 13510 ft | 291 kts | 37° |
| 2026-05-04 19:28 | 55.60508 | 11.88716 | 13153 ft | 287 kts | 29° |
| 2026-05-04 19:28 | 55.62166 | 11.90648 | 12811 ft | 284 kts | 28° |
| 2026-05-04 19:28 | 55.63821 | 11.92544 | 12471 ft | 282 kts | 28° |
| 2026-05-04 19:28 | 55.65466 | 11.94422 | 12154 ft | 281 kts | 28° |
| 2026-05-04 19:29 | 55.67102 | 11.96288 | 11825 ft | 279 kts | 28° |
| 2026-05-04 19:29 | 55.68727 | 11.98141 | 11508 ft | 277 kts | 28° |
| 2026-05-04 19:29 | 55.70320 | 11.99956 | 11193 ft | 275 kts | 28° |
| 2026-05-04 19:29 | 55.71925 | 12.01785 | 10891 ft | 273 kts | 28° |
| 2026-05-04 19:30 | 55.73518 | 12.03608 | 10578 ft | 272 kts | 28° |
| 2026-05-04 19:30 | 55.75105 | 12.05428 | 10261 ft | 271 kts | 28° |
| 2026-05-04 19:30 | 55.76683 | 12.07238 | 9952 ft | 269 kts | 28° |
| 2026-05-04 19:30 | 55.78252 | 12.09041 | 9628 ft | 268 kts | 28° |
| 2026-05-04 19:31 | 55.79761 | 12.10896 | 9280 ft | 269 kts | 39° |
| 2026-05-04 19:31 | 55.80863 | 12.13569 | 8952 ft | 272 kts | 66° |
| 2026-05-04 19:31 | 55.81228 | 12.16840 | 8602 ft | 271 kts | 94° |
| 2026-05-04 19:31 | 55.80783 | 12.20038 | 8248 ft | 266 kts | 120° |
| 2026-05-04 19:32 | 55.79890 | 12.22909 | 7885 ft | 265 kts | 122° |
| 2026-05-04 19:32 | 55.78989 | 12.25767 | 7548 ft | 264 kts | 122° |
| 2026-05-04 19:32 | 55.78097 | 12.28607 | 7237 ft | 263 kts | 122° |
| 2026-05-04 19:32 | 55.77212 | 12.31433 | 6923 ft | 261 kts | 122° |
| 2026-05-04 19:33 | 55.76333 | 12.34239 | 6603 ft | 259 kts | 121° |
| 2026-05-04 19:33 | 55.75458 | 12.37027 | 6289 ft | 258 kts | 121° |
| 2026-05-04 19:33 | 55.74597 | 12.39770 | 5970 ft | 256 kts | 121° |
| 2026-05-04 19:33 | 55.73733 | 12.42519 | 5642 ft | 254 kts | 121° |
| 2026-05-04 19:34 | 55.72872 | 12.45256 | 5302 ft | 253 kts | 121° |
| 2026-05-04 19:34 | 55.72206 | 12.48139 | 4975 ft | 253 kts | 105° |
| 2026-05-04 19:34 | 55.71972 | 12.51221 | 4624 ft | 252 kts | 89° |
| 2026-05-04 19:34 | 55.72174 | 12.54282 | 4293 ft | 249 kts | 73° |
| 2026-05-04 19:35 | 55.72776 | 12.57110 | 4042 ft | 242 kts | 60° |
| 2026-05-04 19:35 | 55.73551 | 12.59773 | 4003 ft | 244 kts | 60° |
| 2026-05-04 19:35 | 55.74329 | 12.62454 | 4007 ft | 244 kts | 58° |
| 2026-05-04 19:35 | 55.75206 | 12.64977 | 4005 ft | 243 kts | 52° |
| 2026-05-04 19:36 | 55.76182 | 12.67432 | 4005 ft | 243 kts | 51° |
| 2026-05-04 19:36 | 55.77168 | 12.69863 | 3912 ft | 242 kts | 51° |
| 2026-05-04 19:36 | 55.78147 | 12.72279 | 3585 ft | 240 kts | 51° |
| 2026-05-04 19:36 | 55.79114 | 12.74662 | 3288 ft | 237 kts | 51° |
| 2026-05-04 19:37 | 55.80070 | 12.77021 | 3025 ft | 233 kts | 51° |
| 2026-05-04 19:37 | 55.81018 | 12.79365 | 3009 ft | 234 kts | 52° |
| 2026-05-04 19:37 | 55.81678 | 12.81938 | 2991 ft | 226 kts | 81° |
| 2026-05-04 19:37 | 55.81460 | 12.84655 | 2994 ft | 224 kts | 115° |
| 2026-05-04 19:38 | 55.80676 | 12.86994 | 2996 ft | 223 kts | 128° |
| 2026-05-04 19:38 | 55.79468 | 12.88605 | 2995 ft | 218 kts | 162° |
| 2026-05-04 19:38 | 55.77995 | 12.89030 | 2998 ft | 213 kts | 187° |
| 2026-05-04 19:38 | 55.76586 | 12.88377 | 2991 ft | 208 kts | 211° |
| 2026-05-04 19:39 | 55.75438 | 12.86864 | 3008 ft | 205 kts | 225° |
| 2026-05-04 19:39 | 55.74400 | 12.85237 | 3000 ft | 192 kts | 225° |
| 2026-05-04 19:39 | 55.73410 | 12.83685 | 2874 ft | 187 kts | 225° |
| 2026-05-04 19:39 | 55.72443 | 12.82173 | 2653 ft | 184 kts | 225° |
| 2026-05-04 19:40 | 55.71483 | 12.80674 | 2414 ft | 183 kts | 225° |
| 2026-05-04 19:40 | 55.70546 | 12.79213 | 2169 ft | 178 kts | 225° |
| 2026-05-04 19:40 | 55.69655 | 12.77826 | 1941 ft | 166 kts | 226° |
| 2026-05-04 19:40 | 55.68799 | 12.76492 | 1720 ft | 162 kts | 226° |
| 2026-05-04 19:41 | 55.67957 | 12.75179 | 1497 ft | 160 kts | 225° |
| 2026-05-04 19:41 | 55.67134 | 12.73900 | 1274 ft | 152 kts | 225° |
| 2026-05-04 19:41 | 55.66364 | 12.72703 | 1075 ft | 144 kts | 226° |
| 2026-05-04 19:41 | 55.65615 | 12.71537 | 869 ft | 143 kts | 224° |
| 2026-05-04 19:42 | 55.64869 | 12.70376 | 675 ft | 142 kts | 224° |
| 2026-05-04 19:42 | 55.64120 | 12.69223 | 461 ft | 144 kts | 224° |
| 2026-05-04 19:42 | 55.63380 | 12.68075 | 290 ft | 143 kts | 224° |
| 2026-05-04 19:42 | 55.62635 | 12.66902 | 104 ft | 143 kts | 224° |
| 2026-05-04 19:43 | 55.61915 | 12.65787 | 18 ft | 122 kts | 221° |
| 2026-05-04 19:43 | 55.61421 | 12.65019 | 18 ft | 59 kts | 221° |
| 2026-05-04 19:43 | 55.61255 | 12.64630 | 17 ft | 35 kts | 249° |
| 2026-05-04 19:43 | 55.61197 | 12.64326 | 17 ft | 15 kts | 251° |
| 2026-05-04 19:44 | 55.61199 | 12.64151 | 18 ft | 15 kts | 307° |
| 2026-05-04 19:44 | 55.61272 | 12.64110 | 17 ft | 11 kts | 24° |
| 2026-05-04 19:44 | 55.61338 | 12.64180 | 17 ft | 12 kts | 34° |
| 2026-05-04 19:44 | 55.61412 | 12.64265 | 17 ft | 13 kts | 33° |
| 2026-05-04 19:45 | 55.61492 | 12.64358 | 17 ft | 14 kts | 33° |
| 2026-05-04 19:45 | 55.61580 | 12.64459 | 17 ft | 16 kts | 33° |
| 2026-05-04 19:45 | 55.61674 | 12.64563 | 17 ft | 15 kts | 23° |
| 2026-05-04 19:45 | 55.61783 | 12.64547 | 17 ft | 16 kts | 349° |
| 2026-05-04 19:46 | 55.61888 | 12.64511 | 17 ft | 9 kts | 349° |
| 2026-05-04 19:46 | 55.61906 | 12.64505 | 17 ft | 0 kts | 350° |
| 2026-05-04 19:46 | 55.61907 | 12.64505 | 17 ft | 1 kts | 350° |
| 2026-05-04 19:46 | 55.61918 | 12.64502 | 17 ft | 3 kts | 350° |
| 2026-05-04 19:47 | 55.61952 | 12.64491 | 18 ft | 9 kts | 349° |
| 2026-05-04 19:47 | 55.62039 | 12.64462 | 18 ft | 16 kts | 349° |
| 2026-05-04 19:47 | 55.62156 | 12.64423 | 16 ft | 18 kts | 349° |
| 2026-05-04 19:47 | 55.62263 | 12.64318 | 17 ft | 19 kts | 296° |
| 2026-05-04 19:48 | 55.62345 | 12.64105 | 14 ft | 22 kts | 303° |
| 2026-05-04 19:48 | 55.62433 | 12.63863 | 15 ft | 24 kts | 303° |
| 2026-05-04 19:48 | 55.62526 | 12.63611 | 18 ft | 23 kts | 303° |
| 2026-05-04 19:48 | 55.62612 | 12.63502 | 16 ft | 8 kts | 358° |
| 2026-05-04 19:49 | 55.62626 | 12.63503 | 16 ft | 1 kts | 4° |
| 2026-05-04 19:49 | 55.62627 | 12.63504 | 16 ft | 0 kts | 4° |
| 2026-05-04 19:49 | 55.62631 | 12.63504 | 16 ft | 1 kts | 4° |
| 2026-05-04 19:49 | 55.62643 | 12.63505 | 16 ft | 2 kts | 0° |
| 2026-05-04 19:50 | 55.62663 | 12.63490 | 16 ft | 6 kts | 323° |
| 2026-05-04 19:50 | 55.62714 | 12.63357 | 17 ft | 16 kts | 302° |
| 2026-05-04 19:50 | 55.62796 | 12.63354 | 18 ft | 14 kts | 32° |
| 2026-05-04 19:50 | 55.62852 | 12.63466 | 17 ft | 12 kts | 82° |
| 2026-05-04 19:51 | 55.62871 | 12.63579 | 18 ft | 8 kts | 43° |
| 2026-05-04 19:51 | 55.62899 | 12.63622 | 17 ft | 2 kts | 41° |